sensor_id;sensor_type;location;lat;lon;timestamp;pressure;altitude;pressure_sealevel;temperature
76583;BMP280;65462;52.148;7.940;2023-02-11T00:00:21;102410.25;;;6.47
76583;BMP280;65462;52.148;7.940;2023-02-11T00:02:46;102408.22;;;6.49
76583;BMP280;65462;52.148;7.940;2023-02-11T00:05:11;102415.28;;;6.48
76583;BMP280;65462;52.148;7.940;2023-02-11T00:07:37;102407.91;;;6.45
76583;BMP280;65462;52.148;7.940;2023-02-11T00:10:03;102415.59;;;6.52
76583;BMP280;65462;52.148;7.940;2023-02-11T00:12:32;102403.72;;;6.49
76583;BMP280;65462;52.148;7.940;2023-02-11T00:14:57;102397.47;;;6.50
76583;BMP280;65462;52.148;7.940;2023-02-11T00:17:23;102386.16;;;6.50
76583;BMP280;65462;52.148;7.940;2023-02-11T00:19:51;102375.91;;;6.48
76583;BMP280;65462;52.148;7.940;2023-02-11T00:22:17;102380.09;;;6.49
76583;BMP280;65462;52.148;7.940;2023-02-11T00:24:42;102376.44;;;6.50
76583;BMP280;65462;52.148;7.940;2023-02-11T00:27:07;102374.09;;;6.49
76583;BMP280;65462;52.148;7.940;2023-02-11T00:29:33;102374.84;;;6.49
76583;BMP280;65462;52.148;7.940;2023-02-11T00:31:58;102380.09;;;6.49
76583;BMP280;65462;52.148;7.940;2023-02-11T00:34:29;102390.00;;;6.42
76583;BMP280;65462;52.148;7.940;2023-02-11T00:36:54;102386.56;;;6.42
76583;BMP280;65462;52.148;7.940;2023-02-11T00:39:19;102393.97;;;6.45
76583;BMP280;65462;52.148;7.940;2023-02-11T00:41:45;102383.16;;;6.41
76583;BMP280;65462;52.148;7.940;2023-02-11T00:44:10;102383.16;;;6.41
76583;BMP280;65462;52.148;7.940;2023-02-11T00:46:35;102382.84;;;6.38
76583;BMP280;65462;52.148;7.940;2023-02-11T00:49:00;102385.25;;;6.39
76583;BMP280;65462;52.148;7.940;2023-02-11T00:51:27;102390.25;;;6.41
76583;BMP280;65462;52.148;7.940;2023-02-11T00:53:53;102401.28;;;6.43
76583;BMP280;65462;52.148;7.940;2023-02-11T00:56:18;102398.38;;;6.39
76583;BMP280;65462;52.148;7.940;2023-02-11T00:58:44;102414.41;;;6.43
76583;BMP280;65462;52.148;7.940;2023-02-11T01:01:09;102401.00;;;6.39
76583;BMP280;65462;52.148;7.940;2023-02-11T01:03:36;102407.03;;;6.40
76583;BMP280;65462;52.148;7.940;2023-02-11T01:06:02;102419.84;;;6.36
76583;BMP280;65462;52.148;7.940;2023-02-11T01:08:27;102417.28;;;6.41
76583;BMP280;65462;52.148;7.940;2023-02-11T01:10:57;102427.00;;;6.41
76583;BMP280;65462;52.148;7.940;2023-02-11T01:13:24;102420.97;;;6.40
76583;BMP280;65462;52.148;7.940;2023-02-11T01:15:49;102399.63;;;6.37
76583;BMP280;65462;52.148;7.940;2023-02-11T01:18:14;102400.44;;;6.37
76583;BMP280;65462;52.148;7.940;2023-02-11T01:20:40;102382.31;;;6.36
76583;BMP280;65462;52.148;7.940;2023-02-11T01:23:05;102375.69;;;6.33
76583;BMP280;65462;52.148;7.940;2023-02-11T01:25:31;102362.03;;;6.31
76583;BMP280;65462;52.148;7.940;2023-02-11T01:27:56;102351.19;;;6.27
76583;BMP280;65462;52.148;7.940;2023-02-11T01:30:21;102356.22;;;6.29
76583;BMP280;65462;52.148;7.940;2023-02-11T01:32:47;102368.06;;;6.31
76583;BMP280;65462;52.148;7.940;2023-02-11T01:35:12;102368.88;;;6.32
76583;BMP280;65462;52.148;7.940;2023-02-11T01:37:37;102362.56;;;6.33
76583;BMP280;65462;52.148;7.940;2023-02-11T01:40:05;102365.75;;;6.35
76583;BMP280;65462;52.148;7.940;2023-02-11T01:42:31;102375.94;;;6.31
76583;BMP280;65462;52.148;7.940;2023-02-11T01:44:57;102377.53;;;6.32
76583;BMP280;65462;52.148;7.940;2023-02-11T01:47:22;102377.81;;;6.36
76583;BMP280;65462;52.148;7.940;2023-02-11T01:50:05;102369.41;;;6.34
76583;BMP280;65462;52.148;7.940;2023-02-11T01:52:34;102365.50;;;6.37
76583;BMP280;65462;52.148;7.940;2023-02-11T01:55:07;102367.81;;;6.33
76583;BMP280;65462;52.148;7.940;2023-02-11T01:57:53;102347.63;;;6.33
76583;BMP280;65462;52.148;7.940;2023-02-11T02:00:24;102354.69;;;6.33
76583;BMP280;65462;52.148;7.940;2023-02-11T02:05:26;102363.38;;;6.33
76583;BMP280;65462;52.148;7.940;2023-02-11T02:07:55;102355.81;;;6.37
76583;BMP280;65462;52.148;7.940;2023-02-11T02:10:23;102346.94;;;6.43
76583;BMP280;65462;52.148;7.940;2023-02-11T02:12:49;102341.94;;;6.42
76583;BMP280;65462;52.148;7.940;2023-02-11T02:15:24;102329.06;;;6.40
76583;BMP280;65462;52.148;7.940;2023-02-11T02:26:11;102338.22;;;6.38
76583;BMP280;65462;52.148;7.940;2023-02-11T02:28:46;102332.25;;;6.42
76583;BMP280;65462;52.148;7.940;2023-02-11T02:35:14;102336.69;;;6.42
76583;BMP280;65462;52.148;7.940;2023-02-11T02:37:25;102333.81;;;6.43
76583;BMP280;65462;52.148;7.940;2023-02-11T02:39:51;102333.25;;;6.41
76583;BMP280;65462;52.148;7.940;2023-02-11T02:42:17;102340.38;;;6.41
76583;BMP280;65462;52.148;7.940;2023-02-11T02:44:48;102329.00;;;6.35
76583;BMP280;65462;52.148;7.940;2023-02-11T02:47:13;102345.88;;;6.39
76583;BMP280;65462;52.148;7.940;2023-02-11T02:49:38;102344.81;;;6.40
76583;BMP280;65462;52.148;7.940;2023-02-11T02:52:15;102349.81;;;6.42
76583;BMP280;65462;52.148;7.940;2023-02-11T02:58:06;102344.09;;;6.45
76583;BMP280;65462;52.148;7.940;2023-02-11T03:06:03;102346.41;;;6.41
76583;BMP280;65462;52.148;7.940;2023-02-11T03:08:58;102346.13;;;6.43
76583;BMP280;65462;52.148;7.940;2023-02-11T03:11:24;102345.09;;;6.44
76583;BMP280;65462;52.148;7.940;2023-02-11T03:13:51;102339.63;;;6.45
76583;BMP280;65462;52.148;7.940;2023-02-11T03:16:24;102337.56;;;6.47
76583;BMP280;65462;52.148;7.940;2023-02-11T03:18:59;102330.16;;;6.44
76583;BMP280;65462;52.148;7.940;2023-02-11T03:21:28;102320.13;;;6.41
76583;BMP280;65462;52.148;7.940;2023-02-11T03:23:57;102325.72;;;6.45
76583;BMP280;65462;52.148;7.940;2023-02-11T03:26:29;102335.91;;;6.41
76583;BMP280;65462;52.148;7.940;2023-02-11T03:32:00;102320.78;;;6.48
76583;BMP280;65462;52.148;7.940;2023-02-11T03:34:34;102309.63;;;6.41
76583;BMP280;65462;52.148;7.940;2023-02-11T03:37:05;102316.00;;;6.45
76583;BMP280;65462;52.148;7.940;2023-02-11T03:39:46;102298.31;;;6.36
76583;BMP280;65462;52.148;7.940;2023-02-11T03:42:13;102308.13;;;6.45
76583;BMP280;65462;52.148;7.940;2023-02-11T03:44:44;102308.47;;;6.54
76583;BMP280;65462;52.148;7.940;2023-02-11T03:47:12;102311.34;;;6.52
76583;BMP280;65462;52.148;7.940;2023-02-11T03:49:40;102311.84;;;6.49
76583;BMP280;65462;52.148;7.940;2023-02-11T03:52:08;102314.72;;;6.48
76583;BMP280;65462;52.148;7.940;2023-02-11T03:54:37;102316.81;;;6.46
76583;BMP280;65462;52.148;7.940;2023-02-11T03:57:04;102323.63;;;6.47
76583;BMP280;65462;52.148;7.940;2023-02-11T03:59:30;102327.31;;;6.46
76583;BMP280;65462;52.148;7.940;2023-02-11T04:01:55;102331.19;;;6.43
76583;BMP280;65462;52.148;7.940;2023-02-11T04:04:21;102339.06;;;6.43
76583;BMP280;65462;52.148;7.940;2023-02-11T04:06:47;102343.28;;;6.44
76583;BMP280;65462;52.148;7.940;2023-02-11T04:09:12;102347.50;;;6.45
76583;BMP280;65462;52.148;7.940;2023-02-11T04:11:37;102338.56;;;6.46
76583;BMP280;65462;52.148;7.940;2023-02-11T04:14:02;102329.13;;;6.45
76583;BMP280;65462;52.148;7.940;2023-02-11T04:16:28;102331.28;;;6.48
76583;BMP280;65462;52.148;7.940;2023-02-11T04:18:55;102330.69;;;6.46
76583;BMP280;65462;52.148;7.940;2023-02-11T04:21:20;102332.56;;;6.46
76583;BMP280;65462;52.148;7.940;2023-02-11T04:23:45;102332.56;;;6.46
76583;BMP280;65462;52.148;7.940;2023-02-11T04:26:10;102332.28;;;6.47
76583;BMP280;65462;52.148;7.940;2023-02-11T04:28:36;102330.78;;;6.51
76583;BMP280;65462;52.148;7.940;2023-02-11T04:31:01;102316.88;;;6.51
76583;BMP280;65462;52.148;7.940;2023-02-11T04:33:26;102310.00;;;6.50
76583;BMP280;65462;52.148;7.940;2023-02-11T04:35:52;102311.28;;;6.47
76583;BMP280;65462;52.148;7.940;2023-02-11T04:38:17;102314.94;;;6.46
76583;BMP280;65462;52.148;7.940;2023-02-11T04:40:42;102316.53;;;6.47
76583;BMP280;65462;52.148;7.940;2023-02-11T04:43:08;102321.31;;;6.50
76583;BMP280;65462;52.148;7.940;2023-02-11T04:45:33;102323.13;;;6.50
76583;BMP280;65462;52.148;7.940;2023-02-11T04:48:01;102323.72;;;6.52
76583;BMP280;65462;52.148;7.940;2023-02-11T04:50:26;102324.47;;;6.52
76583;BMP280;65462;52.148;7.940;2023-02-11T04:52:51;102326.34;;;6.52
76583;BMP280;65462;52.148;7.940;2023-02-11T04:55:17;102325.28;;;6.53
76583;BMP280;65462;52.148;7.940;2023-02-11T04:57:42;102333.94;;;6.53
76583;BMP280;65462;52.148;7.940;2023-02-11T05:00:08;102332.34;;;6.52
76583;BMP280;65462;52.148;7.940;2023-02-11T05:02:34;102331.31;;;6.53
76583;BMP280;65462;52.148;7.940;2023-02-11T05:04:59;102327.91;;;6.53
76583;BMP280;65462;52.148;7.940;2023-02-11T05:07:24;102330.28;;;6.54
76583;BMP280;65462;52.148;7.940;2023-02-11T05:09:50;102338.16;;;6.54
76583;BMP280;65462;52.148;7.940;2023-02-11T05:12:15;102327.84;;;6.48
76583;BMP280;65462;52.148;7.940;2023-02-11T05:14:40;102326.56;;;6.50
76583;BMP280;65462;52.148;7.940;2023-02-11T05:17:06;102330.00;;;6.51
76583;BMP280;65462;52.148;7.940;2023-02-11T05:19:31;102325.53;;;6.51
76583;BMP280;65462;52.148;7.940;2023-02-11T05:21:56;102322.66;;;6.53
76583;BMP280;65462;52.148;7.940;2023-02-11T05:24:22;102346.03;;;6.54
76583;BMP280;65462;52.148;7.940;2023-02-11T05:26:47;102332.41;;;6.57
76583;BMP280;65462;52.148;7.940;2023-02-11T05:29:12;102331.88;;;6.55
76583;BMP280;65462;52.148;7.940;2023-02-11T05:31:37;102335.53;;;6.54
76583;BMP280;65462;52.148;7.940;2023-02-11T05:34:03;102333.44;;;6.56
76583;BMP280;65462;52.148;7.940;2023-02-11T05:36:28;102323.72;;;6.52
76583;BMP280;65462;52.148;7.940;2023-02-11T05:38:54;102317.16;;;6.54
76583;BMP280;65462;52.148;7.940;2023-02-11T05:41:19;102317.69;;;6.56
76583;BMP280;65462;52.148;7.940;2023-02-11T05:43:47;102327.38;;;6.56
76583;BMP280;65462;52.148;7.940;2023-02-11T05:46:16;102321.91;;;6.57
76583;BMP280;65462;52.148;7.940;2023-02-11T05:48:41;102318.19;;;6.53
76583;BMP280;65462;52.148;7.940;2023-02-11T05:51:07;102323.44;;;6.53
76583;BMP280;65462;52.148;7.940;2023-02-11T05:53:32;102324.22;;;6.54
76583;BMP280;65462;52.148;7.940;2023-02-11T05:55:57;102330.28;;;6.54
76583;BMP280;65462;52.148;7.940;2023-02-11T05:58:23;102332.91;;;6.54
76583;BMP280;65462;52.148;7.940;2023-02-11T06:00:48;102327.66;;;6.54
76583;BMP280;65462;52.148;7.940;2023-02-11T06:03:13;102321.09;;;6.57
76583;BMP280;65462;52.148;7.940;2023-02-11T06:05:39;102323.72;;;6.57
76583;BMP280;65462;52.148;7.940;2023-02-11T06:08:06;102320.31;;;6.56
76583;BMP280;65462;52.148;7.940;2023-02-11T06:10:31;102316.13;;;6.55
76583;BMP280;65462;52.148;7.940;2023-02-11T06:12:56;102306.16;;;6.57
76583;BMP280;65462;52.148;7.940;2023-02-11T06:15:21;102316.41;;;6.59
76583;BMP280;65462;52.148;7.940;2023-02-11T06:17:47;102310.06;;;6.55
76583;BMP280;65462;52.148;7.940;2023-02-11T06:20:12;102309.78;;;6.51
76583;BMP280;65462;52.148;7.940;2023-02-11T06:22:37;102311.63;;;6.56
76583;BMP280;65462;52.148;7.940;2023-02-11T06:25:03;102320.31;;;6.56
76583;BMP280;65462;52.148;7.940;2023-02-11T06:27:29;102321.38;;;6.55
76583;BMP280;65462;52.148;7.940;2023-02-11T06:29:54;102314.25;;;6.56
76583;BMP280;65462;52.148;7.940;2023-02-11T06:32:19;102314.03;;;6.57
76583;BMP280;65462;52.148;7.940;2023-02-11T06:34:45;102307.19;;;6.56
76583;BMP280;65462;52.148;7.940;2023-02-11T06:37:10;102302.50;;;6.58
76583;BMP280;65462;52.148;7.940;2023-02-11T06:39:36;102310.38;;;6.58
76583;BMP280;65462;52.148;7.940;2023-02-11T06:42:01;102319.03;;;6.59
76583;BMP280;65462;52.148;7.940;2023-02-11T06:44:26;102323.50;;;6.58
76583;BMP280;65462;52.148;7.940;2023-02-11T06:46:52;102329.31;;;6.60
76583;BMP280;65462;52.148;7.940;2023-02-11T06:49:17;102323.50;;;6.58
76583;BMP280;65462;52.148;7.940;2023-02-11T06:51:42;102316.88;;;6.56
76583;BMP280;65462;52.148;7.940;2023-02-11T06:54:07;102321.38;;;6.55
76583;BMP280;65462;52.148;7.940;2023-02-11T06:56:33;102323.50;;;6.58
76583;BMP280;65462;52.148;7.940;2023-02-11T06:58:59;102333.44;;;6.56
76583;BMP280;65462;52.148;7.940;2023-02-11T07:01:25;102328.19;;;6.56
76583;BMP280;65462;52.148;7.940;2023-02-11T07:03:51;102332.63;;;6.56
76583;BMP280;65462;52.148;7.940;2023-02-11T07:06:20;102325.03;;;6.54
76583;BMP280;65462;52.148;7.940;2023-02-11T07:08:47;102327.09;;;6.52
76583;BMP280;65462;52.148;7.940;2023-02-11T07:11:18;102332.91;;;6.54
76583;BMP280;65462;52.148;7.940;2023-02-11T07:13:44;102324.00;;;6.55
76583;BMP280;65462;52.148;7.940;2023-02-11T07:16:12;102328.44;;;6.55
76583;BMP280;65462;52.148;7.940;2023-02-11T07:18:38;102335.53;;;6.54
76583;BMP280;65462;52.148;7.940;2023-02-11T07:21:05;102333.94;;;6.53
76583;BMP280;65462;52.148;7.940;2023-02-11T07:23:31;102333.41;;;6.51
76583;BMP280;65462;52.148;7.940;2023-02-11T07:25:56;102342.59;;;6.54
76583;BMP280;65462;52.148;7.940;2023-02-11T07:28:22;102342.13;;;6.57
76583;BMP280;65462;52.148;7.940;2023-02-11T07:30:47;102343.94;;;6.56
76583;BMP280;65462;52.148;7.940;2023-02-11T07:33:12;102335.78;;;6.53
76583;BMP280;65462;52.148;7.940;2023-02-11T07:35:37;102336.59;;;6.53
76583;BMP280;65462;52.148;7.940;2023-02-11T07:38:03;102340.78;;;6.54
76583;BMP280;65462;52.148;7.940;2023-02-11T07:40:28;102348.41;;;6.56
76583;BMP280;65462;52.148;7.940;2023-02-11T07:42:55;102348.16;;;6.57
76583;BMP280;65462;52.148;7.940;2023-02-11T07:45:21;102347.63;;;6.55
76583;BMP280;65462;52.148;7.940;2023-02-11T07:47:46;102352.88;;;6.55
76583;BMP280;65462;52.148;7.940;2023-02-11T07:50:11;102349.19;;;6.56
76583;BMP280;65462;52.148;7.940;2023-02-11T07:52:36;102347.16;;;6.58
76583;BMP280;65462;52.148;7.940;2023-02-11T07:55:02;102359.78;;;6.61
76583;BMP280;65462;52.148;7.940;2023-02-11T07:57:27;102362.16;;;6.63
76583;BMP280;65462;52.148;7.940;2023-02-11T07:59:52;102358.72;;;6.62
76583;BMP280;65462;52.148;7.940;2023-02-11T08:02:18;102360.34;;;6.63
76583;BMP280;65462;52.148;7.940;2023-02-11T08:04:45;102361.94;;;6.64
76583;BMP280;65462;52.148;7.940;2023-02-11T08:07:14;102356.69;;;6.64
76583;BMP280;65462;52.148;7.940;2023-02-11T08:09:39;102365.59;;;6.63
76583;BMP280;65462;52.148;7.940;2023-02-11T08:12:04;102360.34;;;6.63
76583;BMP280;65462;52.148;7.940;2023-02-11T08:14:29;102361.13;;;6.64
76583;BMP280;65462;52.148;7.940;2023-02-11T08:16:56;102354.84;;;6.65
76583;BMP280;65462;52.148;7.940;2023-02-11T08:19:22;102364.56;;;6.64
76583;BMP280;65462;52.148;7.940;2023-02-11T08:21:48;102356.69;;;6.64
76583;BMP280;65462;52.148;7.940;2023-02-11T08:24:13;102360.34;;;6.68
76583;BMP280;65462;52.148;7.940;2023-02-11T08:26:39;102360.94;;;6.70
76583;BMP280;65462;52.148;7.940;2023-02-11T08:29:09;102361.41;;;6.67
76583;BMP280;65462;52.148;7.940;2023-02-11T08:31:37;102375.88;;;6.70
76583;BMP280;65462;52.148;7.940;2023-02-11T08:34:03;102369.59;;;6.71
76583;BMP280;65462;52.148;7.940;2023-02-11T08:36:31;102373.03;;;6.71
76583;BMP280;65462;52.148;7.940;2023-02-11T08:38:58;102382.25;;;6.74
76583;BMP280;65462;52.148;7.940;2023-02-11T08:41:24;102372.47;;;6.69
76583;BMP280;65462;52.148;7.940;2023-02-11T08:43:49;102378.81;;;6.73
76583;BMP280;65462;52.148;7.940;2023-02-11T08:46:17;102373.31;;;6.75
76583;BMP280;65462;52.148;7.940;2023-02-11T08:48:43;102382.56;;;6.77
76583;BMP280;65462;52.148;7.940;2023-02-11T08:51:12;102382.56;;;6.77
76583;BMP280;65462;52.148;7.940;2023-02-11T08:53:38;102369.44;;;6.77
76583;BMP280;65462;52.148;7.940;2023-02-11T08:56:03;102376.84;;;6.85
76583;BMP280;65462;52.148;7.940;2023-02-11T08:58:30;102380.28;;;6.86
76583;BMP280;65462;52.148;7.940;2023-02-11T09:00:55;102384.72;;;6.85
76583;BMP280;65462;52.148;7.940;2023-02-11T09:03:21;102391.34;;;6.88
76583;BMP280;65462;52.148;7.940;2023-02-11T09:05:48;102392.41;;;6.92
76583;BMP280;65462;52.148;7.940;2023-02-11T09:08:21;102392.72;;;6.95
76583;BMP280;65462;52.148;7.940;2023-02-11T09:10:47;102396.16;;;6.96
76583;BMP280;65462;52.148;7.940;2023-02-11T09:13:12;102407.94;;;6.93
76583;BMP280;65462;52.148;7.940;2023-02-11T09:15:38;102409.84;;;6.98
76583;BMP280;65462;52.148;7.940;2023-02-11T09:18:04;102412.25;;;7.00
76583;BMP280;65462;52.148;7.940;2023-02-11T09:20:29;102405.69;;;7.02
76583;BMP280;65462;52.148;7.940;2023-02-11T09:22:57;102414.59;;;7.01
76583;BMP280;65462;52.148;7.940;2023-02-11T09:25:22;102423.84;;;7.04
76583;BMP280;65462;52.148;7.940;2023-02-11T09:27:47;102413.34;;;7.04
76583;BMP280;65462;52.148;7.940;2023-02-11T09:30:14;102419.13;;;7.06
76583;BMP280;65462;52.148;7.940;2023-02-11T09:32:39;102415.28;;;7.13
76583;BMP280;65462;52.148;7.940;2023-02-11T09:35:05;102425.81;;;7.18
76583;BMP280;65462;52.148;7.940;2023-02-11T09:37:30;102430.28;;;7.18
76583;BMP280;65462;52.148;7.940;2023-02-11T09:39:55;102439.47;;;7.15
76583;BMP280;65462;52.148;7.940;2023-02-11T09:42:30;102440.28;;;7.16
76583;BMP280;65462;52.148;7.940;2023-02-11T09:45:02;102441.31;;;7.15
76583;BMP280;65462;52.148;7.940;2023-02-11T09:47:31;102446.63;;;7.20
76583;BMP280;65462;52.148;7.940;2023-02-11T09:50:15;102444.00;;;7.20
76583;BMP280;65462;52.148;7.940;2023-02-11T09:55:18;102451.63;;;7.21
76583;BMP280;65462;52.148;7.940;2023-02-11T09:57:44;102456.66;;;7.23
76583;BMP280;65462;52.148;7.940;2023-02-11T10:00:33;102459.28;;;7.23
76583;BMP280;65462;52.148;7.940;2023-02-11T10:03:32;102466.91;;;7.24
76583;BMP280;65462;52.148;7.940;2023-02-11T10:09:33;102479.50;;;7.22
76583;BMP280;65462;52.148;7.940;2023-02-11T10:15:05;102489.81;;;7.29
76583;BMP280;65462;52.148;7.940;2023-02-11T10:20:18;102488.28;;;7.33
76583;BMP280;65462;52.148;7.940;2023-02-11T10:23:00;102511.16;;;7.32
76583;BMP280;65462;52.148;7.940;2023-02-11T10:25:33;102517.19;;;7.33
76583;BMP280;65462;52.148;7.940;2023-02-11T10:28:00;102510.91;;;7.34
76583;BMP280;65462;52.148;7.940;2023-02-11T10:30:32;102511.41;;;7.31
76583;BMP280;65462;52.148;7.940;2023-02-11T10:33:06;102511.94;;;7.33
76583;BMP280;65462;52.148;7.940;2023-02-11T10:35:36;102510.09;;;7.33
76583;BMP280;65462;52.148;7.940;2023-02-11T10:38:02;102508.75;;;7.31
76583;BMP280;65462;52.148;7.940;2023-02-11T10:40:29;102502.53;;;7.37
76583;BMP280;65462;52.148;7.940;2023-02-11T10:42:58;102490.25;;;7.42
76583;BMP280;65462;52.148;7.940;2023-02-11T10:45:37;102485.22;;;7.41
76583;BMP280;65462;52.148;7.940;2023-02-11T10:48:05;102494.69;;;7.42
76583;BMP280;65462;52.148;7.940;2023-02-11T10:50:49;102490.78;;;7.44
76583;BMP280;65462;52.148;7.940;2023-02-11T10:53:17;102491.81;;;7.43
76583;BMP280;65462;52.148;7.940;2023-02-11T10:55:54;102496.84;;;7.45
76583;BMP280;65462;52.148;7.940;2023-02-11T10:58:43;102500.19;;;7.40
76583;BMP280;65462;52.148;7.940;2023-02-11T11:01:09;102494.22;;;7.45
76583;BMP280;65462;52.148;7.940;2023-02-11T11:03:45;102492.91;;;7.47
76583;BMP280;65462;52.148;7.940;2023-02-11T11:06:11;102500.06;;;7.52
76583;BMP280;65462;52.148;7.940;2023-02-11T11:08:48;102506.88;;;7.48
76583;BMP280;65462;52.148;7.940;2023-02-11T11:11:19;102493.19;;;7.51
76583;BMP280;65462;52.148;7.940;2023-02-11T11:14:00;102495.34;;;7.54
76583;BMP280;65462;52.148;7.940;2023-02-11T11:16:29;102502.25;;;7.60
76583;BMP280;65462;52.148;7.940;2023-02-11T11:21:44;102502.25;;;7.60
76583;BMP280;65462;52.148;7.940;2023-02-11T11:26:53;102483.53;;;7.56
76583;BMP280;65462;52.148;7.940;2023-02-11T11:29:29;102484.88;;;7.59
76583;BMP280;65462;52.148;7.940;2023-02-11T11:31:58;102471.16;;;7.57
76583;BMP280;65462;52.148;7.940;2023-02-11T11:34:30;102487.69;;;7.79
76583;BMP280;65462;52.148;7.940;2023-02-11T11:36:58;102490.06;;;7.81
76583;BMP280;65462;52.148;7.940;2023-02-11T11:39:28;102485.53;;;7.76
76583;BMP280;65462;52.148;7.940;2023-02-11T11:41:56;102495.00;;;7.72
76583;BMP280;65462;52.148;7.940;2023-02-11T11:44:34;102491.06;;;7.75
76583;BMP280;65462;52.148;7.940;2023-02-11T11:49:39;102494.47;;;7.75
76583;BMP280;65462;52.148;7.940;2023-02-11T11:55:03;102487.13;;;7.77
76583;BMP280;65462;52.148;7.940;2023-02-11T11:57:34;102477.66;;;7.76
76583;BMP280;65462;52.148;7.940;2023-02-11T12:00:01;102473.50;;;7.80
76583;BMP280;65462;52.148;7.940;2023-02-11T12:02:56;102475.63;;;7.83
76583;BMP280;65462;52.148;7.940;2023-02-11T12:05:26;102467.75;;;7.88
76583;BMP280;65462;52.148;7.940;2023-02-11T12:10:48;102468.31;;;7.90
76583;BMP280;65462;52.148;7.940;2023-02-11T12:18:40;102483.09;;;7.96
76583;BMP280;65462;52.148;7.940;2023-02-11T12:26:51;102486.56;;;8.02
76583;BMP280;65462;52.148;7.940;2023-02-11T12:38:24;102496.84;;;8.08
76583;BMP280;65462;52.148;7.940;2023-02-11T12:41:12;102489.75;;;8.09
76583;BMP280;65462;52.148;7.940;2023-02-11T12:44:03;102483.72;;;8.13
76583;BMP280;65462;52.148;7.940;2023-02-11T12:46:37;102483.50;;;8.15
76583;BMP280;65462;52.148;7.940;2023-02-11T12:49:21;102481.13;;;8.18
76583;BMP280;65462;52.148;7.940;2023-02-11T12:54:46;102479.09;;;8.26
76583;BMP280;65462;52.148;7.940;2023-02-11T12:57:22;102480.66;;;8.27
76583;BMP280;65462;52.148;7.940;2023-02-11T12:59:58;102476.72;;;8.29
76583;BMP280;65462;52.148;7.940;2023-02-11T13:02:38;102485.41;;;8.30
76583;BMP280;65462;52.148;7.940;2023-02-11T13:05:17;102480.13;;;8.30
76583;BMP280;65462;52.148;7.940;2023-02-11T13:07:45;102484.94;;;8.33
76583;BMP280;65462;52.148;7.940;2023-02-11T13:10:29;102484.44;;;8.36
76583;BMP280;65462;52.148;7.940;2023-02-11T13:12:56;102477.03;;;8.38
76583;BMP280;65462;52.148;7.940;2023-02-11T13:15:42;102477.03;;;8.38
76583;BMP280;65462;52.148;7.940;2023-02-11T13:20:58;102482.59;;;8.41
76583;BMP280;65462;52.148;7.940;2023-02-11T13:23:41;102487.38;;;8.44
76583;BMP280;65462;52.148;7.940;2023-02-11T13:26:20;102486.34;;;8.45
76583;BMP280;65462;52.148;7.940;2023-02-11T13:28:53;102484.19;;;8.42
76583;BMP280;65462;52.148;7.940;2023-02-11T13:31:21;102477.09;;;8.48
76583;BMP280;65462;52.148;7.940;2023-02-11T13:33:50;102486.84;;;8.52
76583;BMP280;65462;52.148;7.940;2023-02-11T13:36:18;102476.63;;;8.56
76583;BMP280;65462;52.148;7.940;2023-02-11T13:39:04;102480.84;;;8.57
76583;BMP280;65462;52.148;7.940;2023-02-11T13:41:36;102478.47;;;8.55
76583;BMP280;65462;52.148;7.940;2023-02-11T13:46:58;102470.03;;;8.58
76583;BMP280;65462;52.148;7.940;2023-02-11T13:49:40;102451.31;;;8.60
76583;BMP280;65462;52.148;7.940;2023-02-11T13:52:27;102445.81;;;8.61
76583;BMP280;65462;52.148;7.940;2023-02-11T13:54:56;102452.41;;;8.64
76583;BMP280;65462;52.148;7.940;2023-02-11T13:57:31;102454.00;;;8.70
76583;BMP280;65462;52.148;7.940;2023-02-11T13:59:59;102460.06;;;8.70
76583;BMP280;65462;52.148;7.940;2023-02-11T14:02:36;102455.59;;;8.71
76583;BMP280;65462;52.148;7.940;2023-02-11T14:05:29;102448.22;;;8.73
76583;BMP280;65462;52.148;7.940;2023-02-11T14:08:17;102459.06;;;8.76
76583;BMP280;65462;52.148;7.940;2023-02-11T14:16:18;102455.13;;;8.84
76583;BMP280;65462;52.148;7.940;2023-02-11T14:26:42;102464.88;;;8.83
76583;BMP280;65462;52.148;7.940;2023-02-11T14:35:36;102474.38;;;8.89
76583;BMP280;65462;52.148;7.940;2023-02-11T14:38:16;102472.28;;;8.91
76583;BMP280;65462;52.148;7.940;2023-02-11T14:40:54;102473.34;;;8.90
76583;BMP280;65462;52.148;7.940;2023-02-11T14:43:30;102460.41;;;8.84
76583;BMP280;65462;52.148;7.940;2023-02-11T14:46:00;102469.41;;;8.93
76583;BMP280;65462;52.148;7.940;2023-02-11T14:48:30;102473.09;;;8.97
76583;BMP280;65462;52.148;7.940;2023-02-11T14:51:06;102472.31;;;9.02
76583;BMP280;65462;52.148;7.940;2023-02-11T14:53:33;102470.72;;;9.01
76583;BMP280;65462;52.148;7.940;2023-02-11T14:55:59;102472.03;;;8.98
76583;BMP280;65462;52.148;7.940;2023-02-11T14:58:29;102477.84;;;9.00
76583;BMP280;65462;52.148;7.940;2023-02-11T15:01:05;102477.59;;;9.02
76583;BMP280;65462;52.148;7.940;2023-02-11T15:06:17;102484.72;;;9.06
76583;BMP280;65462;52.148;7.940;2023-02-11T15:08:47;102487.34;;;9.06
76583;BMP280;65462;52.148;7.940;2023-02-11T15:11:16;102479.72;;;9.05
76583;BMP280;65462;52.148;7.940;2023-02-11T15:13:43;102487.88;;;9.08
76583;BMP280;65462;52.148;7.940;2023-02-11T15:16:15;102485.78;;;9.10
76583;BMP280;65462;52.148;7.940;2023-02-11T15:18:46;102490.50;;;9.08
76583;BMP280;65462;52.148;7.940;2023-02-11T15:21:19;102492.34;;;9.08
76583;BMP280;65462;52.148;7.940;2023-02-11T15:26:25;102502.38;;;9.11
76583;BMP280;65462;52.148;7.940;2023-02-11T15:28:50;102504.00;;;9.12
76583;BMP280;65462;52.148;7.940;2023-02-11T15:31:22;102505.59;;;9.13
76583;BMP280;65462;52.148;7.940;2023-02-11T15:33:48;102499.25;;;9.14
76583;BMP280;65462;52.148;7.940;2023-02-11T15:36:15;102501.34;;;9.12
76583;BMP280;65462;52.148;7.940;2023-02-11T15:38:41;102487.34;;;9.06
76583;BMP280;65462;52.148;7.940;2023-02-11T15:41:07;102498.97;;;9.10
76583;BMP280;65462;52.148;7.940;2023-02-11T15:43:43;102511.38;;;9.10
76583;BMP280;65462;52.148;7.940;2023-02-11T15:46:12;102508.97;;;9.08
76583;BMP280;65462;52.148;7.940;2023-02-11T15:48:48;102524.53;;;9.05
76583;BMP280;65462;52.148;7.940;2023-02-11T15:51:34;102528.47;;;9.02
76583;BMP280;65462;52.148;7.940;2023-02-11T15:54:19;102529.00;;;8.99
76583;BMP280;65462;52.148;7.940;2023-02-11T15:56:47;102527.94;;;9.00
76583;BMP280;65462;52.148;7.940;2023-02-11T16:01:50;102533.22;;;9.00
76583;BMP280;65462;52.148;7.940;2023-02-11T16:04:18;102523.75;;;9.04
76583;BMP280;65462;52.148;7.940;2023-02-11T16:06:44;102517.16;;;9.07